Time;durP1;ratioP1;P1;durP2;ratioP2;P2;SDS_P1;SDS_P2;PMS_P1;PMS_P2;Temp;Humidity;BMP_temperature;BMP_pressure;BME280_temperature;BME280_humidity;BME280_pressure;Samples;Min_cycle;Max_cycle;Signal;HPM_P1;HPM_P2
2022/08/06 00:04:14;;;;;;;1.95;1.15;;;24.70;62.90;;;;;;10051307;28;20029;-63
2022/08/06 00:09:05;;;;;;;2.65;1.20;;;24.60;63.00;;;;;;10049536;28;20092;-63
2022/08/06 00:13:56;;;;;;;2.53;1.10;;;24.70;63.00;;;;;;10047015;28;20323;-63
2022/08/06 00:18:46;;;;;;;1.92;1.20;;;24.50;63.00;;;;;;10038770;28;20022;-64
2022/08/06 00:23:37;;;;;;;1.95;1.27;;;24.60;62.80;;;;;;10041572;28;20388;-63
2022/08/06 00:28:28;;;;;;;2.35;1.23;;;24.40;63.00;;;;;;10027543;28;20018;-64
2022/08/06 00:33:18;;;;;;;2.15;1.50;;;24.40;62.80;;;;;;10036915;28;20487;-63
2022/08/06 00:38:09;;;;;;;2.05;1.05;;;24.30;62.80;;;;;;10028022;28;20029;-63
2022/08/06 00:43:04;;;;;;;3.72;1.20;;;24.20;62.70;;;;;;10036440;28;20225;-63
2022/08/06 00:47:54;;;;;;;1.20;1.00;;;24.20;62.50;;;;;;10036362;28;20026;-65
2022/08/06 00:52:45;;;;;;;3.47;1.15;;;24.20;62.50;;;;;;10056664;28;20037;-67
2022/08/06 00:57:36;;;;;;;1.90;1.20;;;24.20;62.30;;;;;;10043647;28;20508;-68
2022/08/06 01:02:27;;;;;;;3.70;1.10;;;24.00;62.40;;;;;;10043437;28;20017;-63
2022/08/06 01:07:17;;;;;;;1.75;1.17;;;24.10;62.50;;;;;;10051456;28;20033;-67
2022/08/06 01:12:08;;;;;;;1.48;1.13;;;23.90;62.60;;;;;;10057482;28;20109;-63
2022/08/06 01:17:04;;;;;;;4.75;1.17;;;23.90;62.60;;;;;;10055621;28;20056;-66
2022/08/06 01:22:10;;;;;;;1.85;1.10;;;23.90;62.40;;;;;;10044372;28;20471;-65
2022/08/06 01:27:31;;;;;;;4.25;1.40;;;23.90;62.40;;;;;;10050886;28;20033;-66
2022/08/06 01:32:30;;;;;;;1.70;1.30;;;24.00;62.10;;;;;;10045906;28;20380;-63
2022/08/06 01:37:43;;;;;;;1.30;1.10;;;23.60;62.50;;;;;;10042658;28;20087;-64
2022/08/06 01:42:36;;;;;;;2.38;1.23;;;23.60;62.60;;;;;;10023835;28;20089;-62
2022/08/06 01:47:30;;;;;;;1.75;1.15;;;23.50;62.70;;;;;;10039568;28;20044;-64
2022/08/06 01:52:24;;;;;;;2.05;1.13;;;23.60;62.50;;;;;;10051118;28;20506;-63
2022/08/06 01:57:18;;;;;;;1.83;1.20;;;23.40;63.00;;;;;;10055733;28;20041;-65
2022/08/06 02:02:14;;;;;;;3.97;1.05;;;23.40;62.90;;;;;;10042515;28;20491;-64
2022/08/06 02:07:08;;;;;;;3.03;1.55;;;23.50;62.90;;;;;;10034946;28;20222;-64
2022/08/06 02:12:04;;;;;;;2.65;1.10;;;23.40;63.10;;;;;;10047851;28;20279;-65
2022/08/06 02:16:56;;;;;;;2.47;1.25;;;23.30;63.90;;;;;;10045980;28;20045;-63
2022/08/06 02:21:48;;;;;;;2.13;1.45;;;23.10;63.70;;;;;;10044103;28;20014;-63
2022/08/06 02:26:41;;;;;;;1.92;1.17;;;23.30;63.20;;;;;;10034135;28;20029;-64
2022/08/06 02:31:33;;;;;;;2.83;1.13;;;23.20;63.20;;;;;;10045172;28;20372;-64
2022/08/06 02:36:38;;;;;;;1.30;1.10;;;23.20;63.20;;;;;;10054103;28;20531;-64
2022/08/06 02:41:41;;;;;;;4.00;1.00;;;23.00;63.40;;;;;;10051365;28;20052;-64
2022/08/06 02:46:44;;;;;;;2.45;1.30;;;23.00;63.50;;;;;;10039674;28;20364;-66
2022/08/06 02:51:40;;;;;;;3.65;1.00;;;23.00;63.30;;;;;;10028110;28;20037;-64
2022/08/06 02:56:33;;;;;;;1.73;1.27;;;23.00;63.30;;;;;;10054124;28;20038;-65
2022/08/06 03:01:37;;;;;;;1.50;1.10;;;23.10;63.00;;;;;;10046192;28;20105;-66
2022/08/06 03:06:34;;;;;;;3.60;1.08;;;23.00;63.00;;;;;;10034866;28;20025;-64
2022/08/06 03:11:28;;;;;;;1.65;1.00;;;23.10;63.60;;;;;;10051704;28;20053;-64
2022/08/06 03:16:20;;;;;;;3.07;1.40;;;23.10;62.80;;;;;;10045925;28;20295;-63
2022/08/06 03:21:12;;;;;;;2.33;1.40;;;23.10;62.90;;;;;;10035473;28;20085;-64
2022/08/06 03:26:05;;;;;;;1.38;1.10;;;22.90;63.00;;;;;;10042141;28;20048;-64
2022/08/06 03:30:56;;;;;;;1.15;1.00;;;22.70;63.30;;;;;;10037366;28;20022;-65
2022/08/06 03:35:48;;;;;;;1.30;0.95;;;22.80;63.30;;;;;;10042351;28;20123;-63
2022/08/06 03:40:43;;;;;;;1.63;1.02;;;22.80;63.20;;;;;;10042799;28;20025;-65
2022/08/06 03:45:37;;;;;;;;;;;22.60;63.60;;;;;;10045668;28;20029;-65
2022/08/06 03:50:32;;;;;;;2.15;1.02;;;22.30;64.20;;;;;;10035452;28;19906;-63
2022/08/06 03:55:28;;;;;;;1.45;1.10;;;22.30;64.30;;;;;;10042312;28;20112;-64
2022/08/06 04:00:22;;;;;;;1.77;1.30;;;22.20;64.50;;;;;;10033252;28;20030;-64
2022/08/06 04:05:18;;;;;;;1.52;1.02;;;22.00;65.00;;;;;;10037986;28;20451;-65
2022/08/06 04:10:10;;;;;;;2.78;1.42;;;22.20;64.90;;;;;;10032300;28;20029;-65
2022/08/06 04:15:01;;;;;;;1.92;1.60;;;22.10;65.00;;;;;;10037865;28;20071;-65
2022/08/06 04:19:53;;;;;;;2.25;1.30;;;22.00;65.40;;;;;;10044626;28;20025;-63
2022/08/06 04:24:44;;;;;;;1.10;1.00;;;22.00;65.60;;;;;;10038191;28;20470;-65
2022/08/06 04:29:37;;;;;;;1.73;1.50;;;22.00;65.50;;;;;;10033389;28;20026;-65
2022/08/06 04:34:29;;;;;;;1.27;1.17;;;21.90;65.90;;;;;;10032582;28;20034;-65
2022/08/06 04:39:21;;;;;;;1.65;1.42;;;21.80;65.90;;;;;;10040049;28;20163;-67
2022/08/06 04:44:12;;;;;;;1.40;1.05;;;21.80;66.10;;;;;;10042434;28;20029;-64
2022/08/06 04:49:04;;;;;;;1.27;1.05;;;21.70;66.00;;;;;;10032754;28;20029;-66
2022/08/06 04:53:54;;;;;;;1.92;1.30;;;21.70;66.30;;;;;;10039941;28;20120;-65
2022/08/06 04:58:45;;;;;;;3.05;1.27;;;21.60;66.50;;;;;;10035776;28;20092;-65
2022/08/06 05:03:36;;;;;;;1.33;1.23;;;21.50;66.50;;;;;;10032784;28;20064;-63
2022/08/06 05:08:30;;;;;;;2.97;1.45;;;21.50;66.80;;;;;;10031999;28;20747;-64
2022/08/06 05:13:23;;;;;;;1.25;1.15;;;21.60;66.30;;;;;;10042335;28;20518;-64
2022/08/06 05:18:20;;;;;;;1.17;0.75;;;21.50;66.70;;;;;;10037559;28;20049;-64
2022/08/06 05:23:20;;;;;;;1.83;0.95;;;21.40;66.90;;;;;;10024602;28;20025;-64
2022/08/06 05:28:10;;;;;;;1.55;1.10;;;21.50;66.50;;;;;;10035124;28;20035;-63
2022/08/06 05:33:01;;;;;;;3.03;1.10;;;21.70;66.20;;;;;;10038568;28;20037;-64
2022/08/06 05:37:52;;;;;;;1.50;0.80;;;21.70;66.00;;;;;;10046805;28;20549;-65
2022/08/06 05:42:42;;;;;;;4.75;1.13;;;21.40;66.30;;;;;;10045555;28;20084;-64
2022/08/06 05:47:37;;;;;;;1.80;1.30;;;21.60;65.90;;;;;;10038675;28;20052;-62
2022/08/06 05:52:30;;;;;;;0.90;0.90;;;21.60;65.80;;;;;;10049486;28;20512;-63
2022/08/06 05:57:35;;;;;;;1.63;0.90;;;21.80;65.20;;;;;;10037963;28;20057;-65
2022/08/06 06:02:28;;;;;;;2.87;1.10;;;21.90;65.10;;;;;;10041434;28;20026;-64
2022/08/06 06:07:19;;;;;;;2.20;1.27;;;21.70;65.10;;;;;;10032083;28;20480;-65
2022/08/06 06:12:11;;;;;;;3.75;1.42;;;21.50;65.20;;;;;;10058395;28;20021;-65
2022/08/06 06:17:28;;;;;;;1.55;0.80;;;21.60;65.10;;;;;;10035818;28;20054;-68
2022/08/06 06:22:27;;;;;;;4.75;1.17;;;21.70;64.80;;;;;;10035391;28;20036;-66
2022/08/06 06:27:38;;;;;;;1.95;1.02;;;21.60;64.90;;;;;;10033690;28;20095;-65
2022/08/06 06:32:44;;;;;;;1.13;0.90;;;21.80;64.70;;;;;;10058708;28;20035;-64
2022/08/06 06:37:44;;;;;;;2.45;1.00;;;21.90;64.30;;;;;;10034606;28;20048;-64
2022/08/06 06:42:51;;;;;;;1.08;0.85;;;22.20;64.00;;;;;;10037584;28;20267;-64
2022/08/06 06:48:02;;;;;;;2.35;1.30;;;22.10;64.00;;;;;;10060979;28;20587;-64
2022/08/06 06:52:54;;;;;;;2.70;1.90;;;22.00;65.00;;;;;;10052687;28;20043;-64
2022/08/06 06:57:54;;;;;;;1.85;1.00;;;22.10;64.20;;;;;;10054656;28;20479;-65
2022/08/06 07:02:48;;;;;;;2.35;1.20;;;22.20;64.10;;;;;;10030200;28;20049;-64
2022/08/06 07:07:41;;;;;;;1.67;1.40;;;22.00;64.20;;;;;;10037927;28;20480;-65
2022/08/06 07:12:34;;;;;;;2.72;1.13;;;22.30;63.90;;;;;;10042182;28;20195;-66
2022/08/06 07:17:27;;;;;;;4.30;1.00;;;22.50;63.70;;;;;;10031965;28;20062;-65
2022/08/06 07:22:21;;;;;;;2.88;1.30;;;22.50;63.60;;;;;;10040670;28;20022;-65
2022/08/06 07:27:13;;;;;;;1.73;1.17;;;22.50;63.50;;;;;;10049278;28;20037;-65
2022/08/06 07:32:04;;;;;;;3.40;1.75;;;22.50;63.60;;;;;;10039624;28;20430;-64
2022/08/06 07:36:56;;;;;;;2.17;1.10;;;22.50;63.90;;;;;;10032208;28;20030;-63
2022/08/06 07:41:47;;;;;;;4.57;1.27;;;22.50;63.80;;;;;;10032489;28;20026;-64
2022/08/06 07:46:41;;;;;;;3.38;1.27;;;22.50;63.60;;;;;;10028385;28;20050;-64
2022/08/06 07:51:35;;;;;;;2.28;1.00;;;22.40;64.00;;;;;;10040551;28;20044;-64
2022/08/06 07:56:27;;;;;;;1.38;0.90;;;22.50;63.90;;;;;;10043650;28;20033;-66
2022/08/06 08:01:18;;;;;;;4.00;1.45;;;22.50;64.00;;;;;;10038488;28;20025;-65
2022/08/06 08:06:18;;;;;;;1.88;1.23;;;22.90;63.60;;;;;;10024272;28;20030;-64
2022/08/06 08:11:10;;;;;;;3.28;1.17;;;22.80;63.70;;;;;;10035696;28;20034;-64
2022/08/06 08:16:01;;;;;;;2.53;1.33;;;22.70;64.00;;;;;;10029313;28;20451;-65
2022/08/06 08:20:52;;;;;;;2.30;1.30;;;22.70;64.00;;;;;;10029955;28;20098;-64
2022/08/06 08:25:42;;;;;;;2.45;1.30;;;22.90;63.70;;;;;;10054250;28;20113;-65
2022/08/06 08:30:33;;;;;;;2.08;1.35;;;22.90;63.70;;;;;;10053754;28;20033;-64
2022/08/06 08:35:24;;;;;;;1.77;1.33;;;23.20;63.30;;;;;;10047225;28;20182;-60
2022/08/06 08:40:15;;;;;;;3.05;1.30;;;23.50;62.80;;;;;;10032983;28;20034;-60
2022/08/06 08:45:06;;;;;;;2.88;1.50;;;23.40;62.30;;;;;;10037403;28;20014;-64
2022/08/06 08:50:00;;;;;;;1.63;1.20;;;23.60;61.90;;;;;;10050722;28;20522;-62
2022/08/06 08:54:55;;;;;;;1.02;0.95;;;23.60;61.30;;;;;;10048187;28;20488;-61
2022/08/06 08:59:45;;;;;;;2.70;1.77;;;23.50;61.00;;;;;;10038493;28;20096;-62
2022/08/06 09:04:37;;;;;;;2.38;1.23;;;23.60;60.90;;;;;;10050717;28;20600;-61
2022/08/06 09:09:28;;;;;;;2.35;1.00;;;23.70;60.40;;;;;;10035470;28;20017;-68
2022/08/06 09:14:21;;;;;;;2.03;1.00;;;23.70;60.10;;;;;;10049940;28;20503;-71
2022/08/06 09:19:12;;;;;;;2.55;1.60;;;23.60;60.00;;;;;;10057378;28;20041;-59
2022/08/06 09:24:04;;;;;;;3.25;1.20;;;23.60;59.60;;;;;;10052301;28;20212;-59
2022/08/06 09:28:55;;;;;;;3.22;1.80;;;23.80;59.40;;;;;;10058555;28;20037;-62
2022/08/06 09:34:04;;;;;;;8.23;2.20;;;23.70;60.00;;;;;;10051598;28;20025;-60
2022/08/06 09:38:59;;;;;;;2.88;1.33;;;23.90;59.10;;;;;;10034774;28;20053;-62
2022/08/06 09:43:50;;;;;;;;;;;24.10;58.90;;;;;;10044069;28;20129;-60
2022/08/06 09:49:01;;;;;;;1.73;0.98;;;24.30;58.50;;;;;;10051518;28;20402;-61
2022/08/06 09:53:59;;;;;;;2.53;1.10;;;24.40;58.20;;;;;;10049629;28;20073;-59
2022/08/06 09:58:50;;;;;;;2.42;1.30;;;24.50;58.00;;;;;;10051779;28;20037;-64
2022/08/06 10:03:41;;;;;;;1.17;1.00;;;24.60;57.90;;;;;;10045369;28;20036;-61
2022/08/06 10:08:32;;;;;;;4.45;1.30;;;24.50;57.60;;;;;;10054624;28;20072;-60
2022/08/06 10:13:27;;;;;;;2.42;1.40;;;24.30;57.40;;;;;;10033595;28;20060;-61
2022/08/06 10:18:41;;;;;;;1.38;1.25;;;24.40;56.80;;;;;;10060168;28;20046;-63
2022/08/06 10:23:34;;;;;;;1.70;1.40;;;24.40;56.40;;;;;;10029153;28;20654;-61
2022/08/06 10:28:27;;;;;;;2.58;1.58;;;24.60;56.40;;;;;;10033210;28;20018;-60
2022/08/06 10:33:18;;;;;;;2.75;1.25;;;24.70;56.00;;;;;;10041928;28;20117;-64
2022/08/06 10:38:14;;;;;;;3.28;1.17;;;24.70;56.00;;;;;;10045143;28;20037;-60
2022/08/06 10:43:06;;;;;;;1.48;1.17;;;24.70;55.80;;;;;;10042911;28;20037;-60
2022/08/06 10:47:57;;;;;;;1.88;1.20;;;24.70;55.60;;;;;;10045114;28;20175;-61
2022/08/06 10:52:49;;;;;;;1.40;1.30;;;24.70;55.30;;;;;;10044275;28;20205;-60
2022/08/06 10:57:40;;;;;;;5.28;1.52;;;24.70;55.10;;;;;;10044786;28;20116;-60
2022/08/06 11:02:59;;;;;;;2.15;1.00;;;24.90;55.00;;;;;;10032306;28;20016;-62
2022/08/06 11:08:21;;;;;;;1.85;1.17;;;25.00;54.60;;;;;;10033692;28;20034;-61
2022/08/06 11:13:47;;;;;;;2.85;1.30;;;25.10;54.20;;;;;;10033908;28;20057;-63
2022/08/06 11:19:01;;;;;;;1.30;1.17;;;25.10;53.90;;;;;;10041246;28;20052;-60
2022/08/06 11:24:00;;;;;;;8.00;1.13;;;25.20;53.60;;;;;;10048825;28;20022;-61
2022/08/06 11:28:54;;;;;;;2.42;1.15;;;25.30;53.20;;;;;;10041777;28;20116;-64
2022/08/06 11:33:48;;;;;;;4.80;1.20;;;25.30;53.30;;;;;;10041770;28;20037;-67
2022/08/06 11:38:48;;;;;;;2.87;1.17;;;25.30;53.10;;;;;;10040713;28;20438;-60
2022/08/06 11:43:51;;;;;;;1.67;0.90;;;25.40;53.00;;;;;;10038743;28;20403;-61
2022/08/06 11:49:02;;;;;;;1.17;1.00;;;25.50;52.80;;;;;;10041928;28;20034;-64
2022/08/06 11:54:11;;;;;;;1.98;1.08;;;25.50;52.40;;;;;;10030502;28;20038;-60
2022/08/06 11:59:15;;;;;;;1.25;1.00;;;25.50;52.10;;;;;;10042092;28;20022;-60
2022/08/06 12:04:06;;;;;;;1.10;1.00;;;25.60;51.90;;;;;;10040927;28;20061;-60
2022/08/06 12:09:12;;;;;;;4.93;1.98;;;25.80;51.60;;;;;;10048728;28;20037;-60
2022/08/06 12:14:04;;;;;;;2.20;0.82;;;26.10;51.40;;;;;;10033553;28;20053;-61
2022/08/06 12:18:55;;;;;;;4.68;1.23;;;26.10;51.30;;;;;;10039311;28;20026;-60
2022/08/06 12:23:50;;;;;;;1.23;1.13;;;26.50;51.10;;;;;;10037204;28;20033;-61
2022/08/06 12:28:41;;;;;;;2.35;1.23;;;26.80;51.20;;;;;;10042033;28;20022;-60
2022/08/06 12:33:41;;;;;;;3.67;1.25;;;27.30;51.00;;;;;;10042572;28;20076;-61
2022/08/06 12:38:33;;;;;;;2.45;1.20;;;27.60;50.50;;;;;;10028319;28;20018;-62
2022/08/06 12:43:26;;;;;;;0.88;0.85;;;27.90;51.00;;;;;;10038764;28;20125;-67
2022/08/06 12:48:17;;;;;;;1.88;1.25;;;28.00;50.80;;;;;;10041322;28;20052;-63
2022/08/06 12:53:10;;;;;;;1.30;1.20;;;28.20;50.90;;;;;;10039197;28;20037;-61
2022/08/06 12:58:02;;;;;;;1.77;0.90;;;28.50;50.20;;;;;;10049361;28;20037;-61
2022/08/06 13:02:53;;;;;;;1.42;0.88;;;28.80;50.00;;;;;;10036137;28;20503;-61
2022/08/06 13:07:44;;;;;;;2.43;1.63;;;29.20;50.10;;;;;;10044274;28;20172;-61
2022/08/06 13:12:35;;;;;;;2.03;0.77;;;29.90;48.90;;;;;;10042665;28;20447;-62
2022/08/06 13:17:26;;;;;;;1.63;0.73;;;30.40;47.90;;;;;;10050142;28;20054;-61
2022/08/06 13:22:16;;;;;;;2.67;2.43;;;31.30;47.10;;;;;;10037111;28;20041;-63
2022/08/06 13:27:07;;;;;;;2.77;1.77;;;31.90;45.90;;;;;;10038283;28;20041;-60
2022/08/06 13:32:23;;;;;;;3.23;1.20;;;32.80;44.80;;;;;;10037622;28;20043;-60
2022/08/06 13:37:14;;;;;;;3.17;1.23;;;33.40;42.50;;;;;;10037559;28;20038;-66
2022/08/06 13:42:11;;;;;;;3.03;1.00;;;30.80;43.90;;;;;;10034892;28;20033;-61
2022/08/06 13:47:02;;;;;;;1.77;1.20;;;31.30;43.80;;;;;;10042404;28;20026;-62
2022/08/06 13:51:52;;;;;;;5.85;1.30;;;32.80;43.00;;;;;;10038458;28;20033;-60
2022/08/06 13:56:44;;;;;;;0.63;0.63;;;33.60;42.30;;;;;;10048471;28;20045;-61
2022/08/06 14:01:34;;;;;;;1.48;0.80;;;34.40;41.40;;;;;;10053841;28;20034;-61
2022/08/06 14:06:25;;;;;;;1.45;1.30;;;34.50;41.00;;;;;;10048554;28;20096;-61
2022/08/06 14:11:16;;;;;;;3.63;1.17;;;34.70;40.60;;;;;;10048384;28;20029;-61
2022/08/06 14:16:06;;;;;;;;;;;34.80;40.50;;;;;;10053967;28;20050;-60
2022/08/06 14:20:57;;;;;;;2.27;0.80;;;35.20;39.80;;;;;;10034265;28;19905;-60
2022/08/06 14:25:48;;;;;;;2.35;1.13;;;35.30;39.90;;;;;;10039949;28;20075;-61
2022/08/06 14:30:39;;;;;;;1.92;0.88;;;36.00;39.60;;;;;;10040576;28;20034;-60
2022/08/06 14:35:30;;;;;;;3.33;0.85;;;34.50;39.00;;;;;;10039835;28;20030;-60
2022/08/06 14:45:45;;;;;;;1.25;0.98;;;32.60;39.30;;;;;;10039746;28;20035;-60
2022/08/06 14:50:36;;;;;;;1.37;1.10;;;33.40;39.50;;;;;;10036317;28;20311;-63
2022/08/06 14:55:26;;;;;;;3.40;1.15;;;34.80;38.60;;;;;;10052076;28;20483;-61
2022/08/06 15:00:17;;;;;;;;;;;35.00;38.00;;;;;;10049304;28;20531;-60
2022/08/06 15:05:08;;;;;;;1.20;0.80;;;35.20;37.80;;;;;;10034241;28;20221;-60
2022/08/06 15:09:58;;;;;;;1.23;0.80;;;34.70;37.50;;;;;;10041607;28;20030;-60
2022/08/06 15:14:49;;;;;;;3.22;1.20;;;35.00;37.60;;;;;;10043793;28;20057;-61
2022/08/06 15:19:40;;;;;;;1.17;0.93;;;35.60;37.10;;;;;;10037607;28;20543;-61
2022/08/06 15:24:32;;;;;;;1.55;0.95;;;35.80;37.20;;;;;;10054262;28;20037;-61
2022/08/06 15:29:26;;;;;;;1.38;0.80;;;35.50;36.70;;;;;;10034801;28;20034;-66
2022/08/06 15:34:17;;;;;;;3.70;1.00;;;35.40;36.30;;;;;;10035316;28;20041;-60
2022/08/06 15:39:07;;;;;;;1.38;1.00;;;35.50;36.20;;;;;;10034810;28;20155;-61
2022/08/06 15:43:58;;;;;;;;;;;35.40;35.80;;;;;;10035813;28;20565;-61
2022/08/06 15:48:49;;;;;;;2.07;0.90;;;35.90;35.30;;;;;;10041135;28;19948;-61
2022/08/06 15:53:40;;;;;;;1.67;0.80;;;35.50;35.50;;;;;;10052991;28;20659;-61
2022/08/06 15:58:30;;;;;;;2.00;0.80;;;35.80;35.30;;;;;;10041430;28;20163;-60
2022/08/06 16:03:21;;;;;;;1.25;0.73;;;34.10;35.40;;;;;;10030004;28;20076;-60
2022/08/06 16:08:13;;;;;;;8.07;1.50;;;34.80;35.30;;;;;;10036707;28;20041;-60
2022/08/06 16:13:04;;;;;;;1.02;0.82;;;34.50;35.20;;;;;;10039435;28;20076;-61
2022/08/06 16:17:55;;;;;;;2.08;0.80;;;33.70;35.90;;;;;;10033852;28;20529;-61
2022/08/06 16:22:47;;;;;;;4.43;2.73;;;36.70;34.80;;;;;;10033957;28;20025;-61
2022/08/06 16:27:39;;;;;;;2.20;1.20;;;35.80;34.00;;;;;;10044830;28;20025;-60
2022/08/06 16:32:29;;;;;;;1.17;0.77;;;32.30;35.90;;;;;;10038890;28;20538;-60
2022/08/06 16:37:20;;;;;;;1.50;0.88;;;31.50;36.50;;;;;;10039526;28;20055;-61
2022/08/06 16:42:11;;;;;;;1.45;0.90;;;33.00;35.60;;;;;;10034307;28;20091;-66
2022/08/06 16:47:03;;;;;;;1.27;0.90;;;31.40;36.30;;;;;;10043818;28;20033;-61
2022/08/06 16:51:54;;;;;;;1.95;1.10;;;32.60;35.60;;;;;;10044709;28;20036;-64
2022/08/06 16:56:44;;;;;;;1.08;0.70;;;31.30;36.30;;;;;;10045457;28;20385;-60
2022/08/06 17:01:36;;;;;;;1.70;1.30;;;30.40;37.10;;;;;;10034141;28;20022;-62
2022/08/06 17:06:29;;;;;;;2.85;0.88;;;31.80;36.90;;;;;;10041321;28;20025;-61
2022/08/06 17:11:20;;;;;;;1.37;0.70;;;32.00;35.80;;;;;;10033744;28;20029;-61
2022/08/06 17:16:11;;;;;;;1.38;0.75;;;30.90;36.70;;;;;;10052157;28;20539;-61
2022/08/06 17:21:02;;;;;;;2.92;0.70;;;33.60;34.70;;;;;;10035124;28;20033;-60
2022/08/06 17:25:54;;;;;;;1.20;0.60;;;31.50;36.10;;;;;;10034531;28;20038;-59
2022/08/06 17:30:44;;;;;;;4.00;0.80;;;31.60;36.10;;;;;;10041946;28;20025;-60
2022/08/06 17:35:36;;;;;;;2.60;0.93;;;32.30;36.10;;;;;;10040947;28;20037;-60
2022/08/06 17:40:27;;;;;;;2.58;1.38;;;30.90;36.60;;;;;;10036245;28;20522;-60
2022/08/06 17:45:18;;;;;;;1.35;0.98;;;29.60;37.50;;;;;;10053667;28;20029;-61
2022/08/06 17:50:09;;;;;;;2.22;0.90;;;29.30;37.80;;;;;;10046123;28;20026;-61
2022/08/06 17:55:00;;;;;;;1.23;0.80;;;28.80;38.20;;;;;;10059699;28;20030;-60
2022/08/06 17:59:51;;;;;;;1.52;0.70;;;28.40;38.50;;;;;;10052472;28;20033;-61
2022/08/06 18:04:42;;;;;;;2.05;0.80;;;28.10;38.90;;;;;;10046201;28;20120;-60
2022/08/06 18:09:36;;;;;;;1.48;0.93;;;27.80;39.30;;;;;;10038878;28;20120;-60
2022/08/06 18:14:27;;;;;;;0.93;0.85;;;27.60;39.50;;;;;;10056878;28;20049;-61
2022/08/06 18:19:18;;;;;;;6.32;2.17;;;27.50;39.60;;;;;;10041112;28;20037;-61
2022/08/06 18:24:09;;;;;;;2.55;0.82;;;27.30;39.90;;;;;;10032748;28;20647;-60
2022/08/06 18:29:02;;;;;;;3.60;0.85;;;27.10;40.10;;;;;;10040640;28;20348;-60
2022/08/06 18:33:52;;;;;;;1.90;0.70;;;27.00;40.10;;;;;;10033295;28;20076;-61
2022/08/06 18:38:43;;;;;;;3.13;0.80;;;26.90;40.30;;;;;;10043984;28;20026;-61
2022/08/06 18:43:34;;;;;;;1.23;0.70;;;26.80;40.40;;;;;;10062160;28;20468;-61
2022/08/06 18:48:26;;;;;;;0.90;0.63;;;26.70;40.50;;;;;;10043903;28;20034;-61
2022/08/06 18:53:16;;;;;;;2.13;0.85;;;26.60;40.60;;;;;;10045011;28;20025;-62
2022/08/06 18:58:07;;;;;;;2.05;1.08;;;26.40;40.80;;;;;;10054280;28;20033;-60
2022/08/06 19:02:57;;;;;;;2.05;0.80;;;26.30;40.90;;;;;;10032097;28;20030;-62
2022/08/06 19:07:48;;;;;;;1.63;0.88;;;26.10;41.50;;;;;;10055971;28;20162;-61
2022/08/06 19:12:40;;;;;;;1.25;0.85;;;26.10;41.10;;;;;;10049254;28;20033;-61
2022/08/06 19:17:31;;;;;;;2.50;1.00;;;25.90;41.20;;;;;;10041792;28;20054;-61
2022/08/06 19:22:23;;;;;;;1.80;0.77;;;25.80;41.30;;;;;;10043248;28;20029;-61
2022/08/06 19:27:14;;;;;;;1.45;0.95;;;25.70;41.70;;;;;;10070412;28;20034;-62
2022/08/06 19:32:05;;;;;;;1.70;0.65;;;25.50;41.80;;;;;;10032008;28;20030;-60
2022/08/06 19:36:56;;;;;;;1.55;0.80;;;25.40;41.90;;;;;;10049967;28;20040;-64
2022/08/06 19:41:50;;;;;;;1.42;0.70;;;25.40;42.00;;;;;;10043087;28;20036;-66
2022/08/06 19:46:41;;;;;;;2.13;1.23;;;25.30;42.10;;;;;;10043215;28;20086;-61
2022/08/06 19:51:32;;;;;;;1.95;0.70;;;25.30;42.10;;;;;;10044638;28;20172;-60
2022/08/06 19:56:23;;;;;;;2.00;0.68;;;25.20;42.20;;;;;;10051663;28;20115;-60
2022/08/06 20:01:14;;;;;;;2.97;1.40;;;25.10;42.20;;;;;;10039994;28;20098;-59
2022/08/06 20:06:07;;;;;;;1.75;0.90;;;25.10;42.40;;;;;;10029316;28;20052;-60
2022/08/06 20:11:00;;;;;;;2.58;1.00;;;24.90;42.50;;;;;;10030804;28;20032;-60
2022/08/06 20:15:51;;;;;;;1.33;0.85;;;24.90;42.50;;;;;;10041771;28;20046;-64
2022/08/06 20:20:42;;;;;;;0.90;0.70;;;24.90;42.60;;;;;;10035236;28;20037;-63
2022/08/06 20:25:33;;;;;;;3.03;0.88;;;24.90;42.50;;;;;;10040605;28;20143;-60
2022/08/06 20:30:24;;;;;;;1.58;0.90;;;24.80;42.60;;;;;;10026702;28;20025;-60
2022/08/06 20:35:15;;;;;;;1.45;0.98;;;24.70;42.70;;;;;;10050161;28;20037;-59
2022/08/06 20:40:06;;;;;;;1.67;0.90;;;24.70;42.70;;;;;;10027990;28;20164;-60
2022/08/06 20:44:58;;;;;;;2.92;1.08;;;24.60;42.70;;;;;;10042217;28;20415;-60
2022/08/06 20:49:48;;;;;;;0.65;0.57;;;24.50;42.80;;;;;;10054851;28;20076;-61
2022/08/06 20:54:39;;;;;;;1.75;1.10;;;24.40;42.80;;;;;;10044860;28;20420;-61
2022/08/06 20:59:30;;;;;;;1.02;0.60;;;24.30;42.90;;;;;;10045967;28;20045;-62
2022/08/06 21:04:20;;;;;;;1.45;0.73;;;24.30;43.00;;;;;;10042284;28;20034;-62
2022/08/06 21:09:12;;;;;;;1.65;0.60;;;24.10;43.10;;;;;;10028949;28;20022;-61
2022/08/06 21:14:03;;;;;;;1.10;0.70;;;24.10;43.20;;;;;;10041985;28;20049;-60
2022/08/06 21:18:53;;;;;;;3.25;0.98;;;24.00;43.40;;;;;;10032651;28;20038;-60
2022/08/06 21:23:44;;;;;;;1.33;0.60;;;24.00;43.30;;;;;;10051417;28;20033;-60
2022/08/06 21:28:35;;;;;;;2.88;0.70;;;23.90;43.50;;;;;;10049606;28;20529;-59
2022/08/06 21:33:26;;;;;;;9.88;1.00;;;23.80;43.60;;;;;;10051114;28;20026;-60
2022/08/06 21:38:17;;;;;;;1.33;0.75;;;23.70;43.80;;;;;;10028184;28;20049;-62
2022/08/06 21:43:07;;;;;;;2.30;0.73;;;23.60;43.90;;;;;;10049992;28;20017;-61
2022/08/06 21:47:58;;;;;;;0.50;0.32;;;23.60;43.80;;;;;;10038568;28;20517;-60
2022/08/06 21:52:49;;;;;;;2.50;0.50;;;23.60;44.10;;;;;;10051766;28;20490;-61
2022/08/06 21:57:44;;;;;;;0.68;0.47;;;23.40;44.20;;;;;;10047482;28;20124;-62
2022/08/06 22:02:35;;;;;;;2.55;0.57;;;23.30;44.40;;;;;;10041593;28;20025;-60
2022/08/06 22:07:25;;;;;;;3.33;1.45;;;23.30;44.60;;;;;;10046343;28;20029;-61
2022/08/06 22:12:16;;;;;;;0.77;0.60;;;23.20;44.70;;;;;;10040177;28;20021;-59
2022/08/06 22:17:07;;;;;;;0.52;0.50;;;23.10;44.90;;;;;;10049136;28;20053;-60
2022/08/06 22:22:01;;;;;;;0.82;0.60;;;23.10;45.10;;;;;;10038974;28;20026;-59
2022/08/06 22:26:52;;;;;;;0.40;0.40;;;23.10;45.10;;;;;;10052546;28;20414;-62
2022/08/06 22:31:43;;;;;;;1.13;0.60;;;22.90;45.50;;;;;;10044311;28;20078;-59
2022/08/06 22:36:33;;;;;;;1.10;0.75;;;22.80;45.70;;;;;;10041009;28;20052;-60
2022/08/06 22:41:24;;;;;;;1.58;1.00;;;22.80;45.70;;;;;;10042870;28;20035;-59
2022/08/06 22:46:15;;;;;;;0.70;0.52;;;22.70;46.10;;;;;;10044502;28;20033;-59
2022/08/06 22:51:06;;;;;;;2.95;0.70;;;22.50;46.40;;;;;;10043635;28;20026;-60
2022/08/06 22:55:57;;;;;;;1.77;0.60;;;22.50;46.50;;;;;;10052633;28;20586;-61
2022/08/06 23:00:51;;;;;;;0.93;0.60;;;22.50;46.70;;;;;;10044184;28;20108;-60
2022/08/06 23:05:41;;;;;;;1.15;0.52;;;22.40;46.80;;;;;;10048319;28;20908;-60
2022/08/06 23:10:32;;;;;;;0.80;0.50;;;22.20;47.20;;;;;;10044721;28;20041;-62
2022/08/06 23:15:23;;;;;;;0.85;0.85;;;22.10;47.40;;;;;;10042554;28;20076;-60
2022/08/06 23:20:14;;;;;;;3.08;0.77;;;22.10;47.60;;;;;;10035776;28;20025;-59
2022/08/06 23:25:05;;;;;;;0.57;0.50;;;21.90;47.80;;;;;;10043247;28;20573;-60
2022/08/06 23:29:56;;;;;;;2.47;0.70;;;21.80;47.90;;;;;;10046573;28;20542;-60
2022/08/06 23:34:46;;;;;;;1.95;0.80;;;21.80;48.20;;;;;;10041207;28;20044;-60
2022/08/06 23:39:37;;;;;;;0.73;0.52;;;21.70;48.40;;;;;;10041512;28;20021;-61
2022/08/06 23:44:28;;;;;;;1.63;0.75;;;21.50;48.60;;;;;;10027643;28;20104;-61
2022/08/06 23:49:20;;;;;;;1.50;0.55;;;21.50;48.90;;;;;;10040492;28;20033;-60
2022/08/06 23:54:10;;;;;;;0.80;0.40;;;21.40;48.90;;;;;;10048491;28;20494;-60
2022/08/06 23:59:01;;;;;;;1.25;0.80;;;21.30;49.00;;;;;;10041996;28;20117;-60
